Time;durP1;ratioP1;P1;durP2;ratioP2;P2;SDS_P1;SDS_P2;PMS_P1;PMS_P2;Temp;Humidity;BMP_temperature;BMP_pressure;BME280_temperature;BME280_humidity;BME280_pressure;Samples;Min_cycle;Max_cycle;Signal;HPM_P1;HPM_P2
2021/12/20 00:00:12;;;;;;;17.65;4.63;;;;;;;5.84;100.00;102819.34;5018984;28;20503;-89
2021/12/20 00:02:37;;;;;;;20.42;4.63;;;;;;;5.84;100.00;102821.03;5011589;28;20026;-90
2021/12/20 00:05:03;;;;;;;18.95;4.75;;;;;;;5.83;100.00;102815.03;5008765;28;20029;-89
2021/12/20 00:07:29;;;;;;;19.30;5.40;;;;;;;5.86;100.00;102825.41;5021982;28;20103;-89
2021/12/20 00:09:54;;;;;;;19.08;4.60;;;;;;;5.84;100.00;102821.03;5025781;28;20104;-89
2021/12/20 00:12:19;;;;;;;20.40;4.82;;;;;;;5.85;100.00;102815.06;5030241;28;20029;-89
2021/12/20 00:14:45;;;;;;;19.58;4.57;;;;;;;5.86;100.00;102821.97;5027814;28;20521;-89
2021/12/20 00:17:10;;;;;;;19.48;4.43;;;;;;;5.83;100.00;102817.59;5030220;28;20028;-90
2021/12/20 00:19:35;;;;;;;23.38;4.50;;;;;;;5.80;100.00;102814.09;5001779;28;20013;-89
2021/12/20 00:22:01;;;;;;;21.98;4.05;;;;;;;5.80;100.00;102822.66;5011334;28;20106;-89
2021/12/20 00:24:26;;;;;;;16.83;4.15;;;;;;;5.79;100.00;102815.78;5026056;28;20033;-90
2021/12/20 00:26:51;;;;;;;19.55;4.22;;;;;;;5.77;100.00;102812.28;5030049;28;20017;-89
2021/12/20 00:29:17;;;;;;;20.30;5.00;;;;;;;5.76;99.83;102810.53;5000660;28;20060;-89
2021/12/20 00:31:43;;;;;;;20.35;4.68;;;;;;;5.76;100.00;102807.09;5029606;28;20029;-88
2021/12/20 00:34:08;;;;;;;25.75;4.50;;;;;;;5.74;99.88;102814.75;5028641;28;20091;-89
2021/12/20 00:36:34;;;;;;;21.45;4.50;;;;;;;5.72;100.00;102808.72;5024471;28;20072;-89
2021/12/20 00:41:43;;;;;;;19.02;4.00;;;;;;;5.72;100.00;102813.88;5030361;28;20049;-89
2021/12/20 00:44:08;;;;;;;20.23;4.47;;;;;;;5.71;100.00;102803.53;5030414;28;20029;-89
2021/12/20 00:46:33;;;;;;;25.10;4.40;;;;;;;5.70;100.00;102806.94;5029752;28;20080;-89
2021/12/20 00:48:59;;;;;;;24.35;4.68;;;;;;;5.70;100.00;102805.22;5016285;28;20091;-83
2021/12/20 00:51:24;;;;;;;19.00;4.30;;;;;;;5.67;99.81;102806.81;5003563;28;20078;-83
2021/12/20 00:53:49;;;;;;;27.83;3.97;;;;;;;5.67;99.51;102799.97;4996140;28;20113;-83
2021/12/20 00:56:14;;;;;;;25.48;4.20;;;;;;;5.68;99.82;102803.44;5010238;28;20099;-83
2021/12/20 00:58:40;;;;;;;23.80;3.92;;;;;;;5.68;100.00;102808.56;5030063;28;20036;-83
2021/12/20 01:01:06;;;;;;;19.63;3.88;;;;;;;5.65;100.00;102806.81;5029316;28;20424;-83
2021/12/20 01:03:33;;;;;;;25.90;4.10;;;;;;;5.63;99.23;102810.16;5028747;28;20029;-83
2021/12/20 01:06:00;;;;;;;26.50;4.10;;;;;;;5.64;99.83;102815.34;5029120;28;20032;-83
2021/12/20 01:08:28;;;;;;;26.40;4.22;;;;;;;5.63;99.93;102805.00;5021212;28;20027;-83
2021/12/20 01:10:54;;;;;;;27.30;3.80;;;;;;;5.60;99.77;102807.47;5016634;28;20029;-83
2021/12/20 01:13:23;;;;;;;14.05;3.70;;;;;;;5.60;99.74;102802.34;5012442;28;20017;-83
2021/12/20 01:15:54;;;;;;;23.13;3.78;;;;;;;5.64;99.13;102812.78;5011450;28;20545;-83
2021/12/20 01:18:21;;;;;;;17.27;3.33;;;;;;;5.56;97.54;102799.69;4996804;28;20034;-89
2021/12/20 01:20:47;;;;;;;28.25;3.80;;;;;;;5.61;98.11;102810.09;5022507;28;20401;-89
2021/12/20 01:23:14;;;;;;;24.85;3.17;;;;;;;5.60;97.88;102794.63;5012148;28;20393;-89
2021/12/20 01:25:42;;;;;;;19.80;4.50;;;;;;;5.55;98.20;102794.50;5024320;28;20029;-89
2021/12/20 01:28:08;;;;;;;19.75;3.15;;;;;;;5.56;97.52;102802.28;5016124;28;20109;-89
2021/12/20 01:30:34;;;;;;;28.38;3.50;;;;;;;5.53;96.04;102801.28;5010360;28;20033;-89
2021/12/20 01:33:00;;;;;;;24.02;3.40;;;;;;;5.51;96.56;102805.53;5016591;28;20500;-89
2021/12/20 01:35:27;;;;;;;22.35;2.78;;;;;;;5.52;96.88;102812.44;5011167;28;20592;-89
2021/12/20 01:37:55;;;;;;;17.60;2.63;;;;;;;5.52;97.31;102804.72;5016762;28;20021;-89
2021/12/20 01:40:22;;;;;;;19.50;3.08;;;;;;;5.50;97.97;102796.97;5029756;28;20134;-89
2021/12/20 01:42:49;;;;;;;23.17;3.33;;;;;;;5.48;97.62;102790.00;5028010;28;20033;-89
2021/12/20 01:45:22;;;;;;;22.33;2.90;;;;;;;5.48;97.63;102788.31;5016743;28;20022;-89
2021/12/20 01:47:51;;;;;;;23.38;3.28;;;;;;;5.49;98.61;102795.22;5017403;28;20490;-89
2021/12/20 01:50:35;;;;;;;25.80;3.08;;;;;;;5.49;98.71;102795.22;4996551;28;20034;-90
2021/12/20 01:53:01;;;;;;;22.65;3.53;;;;;;;5.48;96.03;102798.59;5027988;28;20067;-89
2021/12/20 01:55:26;;;;;;;27.58;3.92;;;;;;;5.47;95.47;102790.84;5029655;28;20030;-89
2021/12/20 01:57:51;;;;;;;28.73;3.60;;;;;;;5.42;95.79;102783.00;5028785;28;20045;-89
2021/12/20 02:00:21;;;;;;;27.20;3.30;;;;;;;5.44;94.91;102796.78;5029485;28;20124;-89
2021/12/20 02:02:46;;;;;;;20.80;3.13;;;;;;;5.47;95.03;102794.28;5031594;28;20031;-89
2021/12/20 02:05:27;;;;;;;27.02;3.35;;;;;;;5.47;96.47;102802.00;5032510;28;20033;-89
2021/12/20 02:10:22;;;;;;;20.25;2.63;;;;;;;5.50;98.32;102794.38;5033534;28;20033;-89
2021/12/20 02:12:47;;;;;;;22.05;2.60;;;;;;;5.46;96.92;102797.69;5015366;28;20083;-89
2021/12/20 02:15:13;;;;;;;20.00;2.78;;;;;;;5.47;97.90;102799.44;5017342;28;20025;-89
2021/12/20 02:17:40;;;;;;;16.52;2.80;;;;;;;5.46;97.33;102794.22;5003407;28;20026;-89
2021/12/20 02:20:06;;;;;;;21.70;2.83;;;;;;;5.43;96.90;102789.88;4996959;28;20022;-89
2021/12/20 02:22:32;;;;;;;29.17;3.10;;;;;;;5.42;97.18;102788.13;5013692;28;20021;-89
2021/12/20 02:24:57;;;;;;;23.10;3.50;;;;;;;5.41;97.01;102783.81;5013485;28;20455;-89
2021/12/20 02:27:23;;;;;;;25.17;3.13;;;;;;;5.42;97.04;102792.41;5013495;28;20026;-89
2021/12/20 02:30:07;;;;;;;19.02;3.38;;;;;;;5.40;96.38;102794.06;5013115;28;20116;-89
2021/12/20 02:38:26;;;;;;;17.92;3.42;;;;;;;5.43;97.52;102784.75;5024125;28;20033;-89
2021/12/20 02:41:02;;;;;;;27.17;3.50;;;;;;;5.46;98.46;102786.50;4996307;28;20038;-89
2021/12/20 02:43:29;;;;;;;21.42;3.63;;;;;;;5.45;97.18;102784.81;5014354;28;20488;-89
2021/12/20 02:45:58;;;;;;;21.92;3.30;;;;;;;5.42;95.95;102779.56;5013299;28;20492;-89
2021/12/20 02:48:23;;;;;;;26.10;3.45;;;;;;;5.41;95.31;102786.41;5013575;28;20033;-88
2021/12/20 02:50:53;;;;;;;23.83;3.03;;;;;;;5.43;96.16;102786.44;5001837;28;20500;-89
2021/12/20 02:53:18;;;;;;;19.40;3.35;;;;;;;5.41;96.80;102777.81;5029751;28;20027;-89
2021/12/20 02:55:43;;;;;;;22.23;3.17;;;;;;;5.42;96.01;102794.97;5031978;28;20108;-89
2021/12/20 02:58:09;;;;;;;21.92;2.90;;;;;;;5.40;96.63;102783.78;5001148;28;20034;-89
2021/12/20 03:00:34;;;;;;;25.60;3.10;;;;;;;5.40;96.40;102784.66;5031732;28;20051;-89
2021/12/20 03:02:59;;;;;;;24.55;2.85;;;;;;;5.38;96.89;102788.03;5031312;28;20287;-89
2021/12/20 03:05:25;;;;;;;18.52;3.47;;;;;;;5.35;96.50;102786.22;5028130;28;20748;-89
2021/12/20 03:07:54;;;;;;;26.52;3.28;;;;;;;5.36;97.36;102779.38;5012297;28;20097;-89
2021/12/20 03:10:21;;;;;;;20.55;2.83;;;;;;;5.31;96.34;102784.41;5012698;28;20100;-89
2021/12/20 03:12:49;;;;;;;21.48;3.78;;;;;;;5.30;97.25;102790.38;5012196;28;20040;-89
2021/12/20 03:15:20;;;;;;;23.70;2.92;;;;;;;5.30;96.99;102785.22;5012822;28;20026;-89
2021/12/20 03:17:45;;;;;;;26.05;2.70;;;;;;;5.27;95.68;102779.09;5014586;28;20080;-89
2021/12/20 03:20:14;;;;;;;28.80;3.17;;;;;;;5.26;96.50;102774.78;5013663;28;20436;-89
2021/12/20 03:22:40;;;;;;;28.00;2.20;;;;;;;5.26;95.77;102779.94;5017713;28;20080;-89
2021/12/20 03:25:05;;;;;;;22.35;2.60;;;;;;;5.27;97.03;102781.69;5014801;28;20026;-89
2021/12/20 03:27:30;;;;;;;17.88;2.70;;;;;;;5.26;97.01;102788.50;4995959;28;20053;-88
2021/12/20 03:29:56;;;;;;;22.77;3.13;;;;;;;5.24;96.19;102790.19;5030132;28;20120;-89
2021/12/20 03:32:22;;;;;;;18.58;2.42;;;;;;;5.26;97.87;102792.78;4999786;28;20060;-89
2021/12/20 03:34:47;;;;;;;22.35;3.58;;;;;;;5.24;96.39;102785.06;5006570;28;20025;-89
2021/12/20 03:37:12;;;;;;;21.05;2.60;;;;;;;5.24;97.22;102779.91;5002254;28;20045;-89
2021/12/20 03:39:37;;;;;;;19.02;2.90;;;;;;;5.27;97.97;102773.97;5006500;28;20025;-89
2021/12/20 03:42:03;;;;;;;14.40;3.20;;;;;;;5.29;97.85;102790.31;5029359;28;20049;-89
2021/12/20 03:44:32;;;;;;;32.75;3.35;;;;;;;5.26;98.12;102785.94;5030719;28;20567;-89
2021/12/20 03:47:00;;;;;;;21.20;2.70;;;;;;;5.28;98.24;102784.31;5030972;28;20032;-89
2021/12/20 03:49:25;;;;;;;22.63;2.58;;;;;;;5.27;96.62;102789.38;5021482;28;20505;-89
2021/12/20 03:51:51;;;;;;;23.55;3.10;;;;;;;5.26;96.99;102777.34;5012464;28;20088;-89
2021/12/20 03:54:16;;;;;;;23.50;2.83;;;;;;;5.27;97.06;102779.09;5026778;28;20424;-89
2021/12/20 03:56:41;;;;;;;21.08;3.53;;;;;;;5.21;95.36;102782.38;5030847;28;20029;-89
2021/12/20 03:59:07;;;;;;;22.05;2.60;;;;;;;5.23;95.58;102783.31;5012037;28;20113;-89
2021/12/20 04:01:33;;;;;;;19.45;2.47;;;;;;;5.25;96.17;102781.66;5019723;28;20133;-89
2021/12/20 04:04:00;;;;;;;23.13;2.92;;;;;;;5.22;95.29;102780.69;5011654;28;20076;-89
2021/12/20 04:06:26;;;;;;;23.58;3.08;;;;;;;5.22;95.40;102784.13;4998060;28;20178;-89
2021/12/20 04:08:52;;;;;;;18.30;3.20;;;;;;;5.20;95.22;102783.19;5015220;28;20440;-89
2021/12/20 04:11:17;;;;;;;25.23;4.18;;;;;;;5.20;95.07;102780.63;5013179;28;20039;-89
2021/12/20 04:13:43;;;;;;;28.27;2.80;;;;;;;5.20;96.36;102767.78;5011656;28;20026;-90
2021/12/20 04:16:08;;;;;;;23.23;4.22;;;;;;;5.24;97.37;102774.78;5030055;28;20036;-89
2021/12/20 04:18:33;;;;;;;24.75;3.00;;;;;;;5.21;97.57;102772.09;5029802;28;20021;-89
2021/12/20 04:20:59;;;;;;;19.13;3.13;;;;;;;5.18;97.49;102766.88;5030562;28;20021;-89
2021/12/20 04:23:24;;;;;;;16.63;2.63;;;;;;;5.20;96.67;102778.06;5011332;28;20032;-89
2021/12/20 04:25:50;;;;;;;24.95;2.72;;;;;;;5.16;95.00;102776.25;5030370;28;20038;-89
2021/12/20 04:28:15;;;;;;;23.52;2.50;;;;;;;5.17;96.80;102788.25;5017226;28;20483;-83
2021/12/20 04:30:41;;;;;;;26.83;2.92;;;;;;;5.14;96.54;102783.03;5015431;28;20100;-83
2021/12/20 04:33:06;;;;;;;27.75;2.92;;;;;;;5.15;95.94;102783.06;5010684;28;20128;-83
2021/12/20 04:35:32;;;;;;;18.77;3.03;;;;;;;5.11;95.58;102778.69;5011117;28;20028;-83
2021/12/20 04:37:59;;;;;;;19.58;2.67;;;;;;;5.11;94.40;102772.66;5004058;28;20064;-83
2021/12/20 04:40:25;;;;;;;17.73;2.65;;;;;;;5.13;94.83;102773.56;5016796;28;20025;-83
2021/12/20 04:42:56;;;;;;;23.00;4.15;;;;;;;5.12;95.89;102772.69;5010806;28;20044;-83
2021/12/20 04:45:23;;;;;;;23.73;3.08;;;;;;;5.13;94.12;102782.16;5014927;28;20107;-83
2021/12/20 04:47:48;;;;;;;22.08;2.35;;;;;;;5.13;95.10;102777.00;5010692;28;20160;-83
2021/12/20 04:50:14;;;;;;;25.38;3.40;;;;;;;5.12;92.80;102782.97;5020126;28;20105;-83
2021/12/20 04:52:41;;;;;;;25.60;3.30;;;;;;;5.09;94.00;102771.75;5023476;28;20045;-83
2021/12/20 04:55:09;;;;;;;27.67;2.80;;;;;;;5.09;95.26;102775.19;5010901;28;20477;-83
2021/12/20 04:57:35;;;;;;;25.52;2.70;;;;;;;5.09;93.64;102780.31;5010572;28;20392;-83
2021/12/20 05:00:00;;;;;;;21.63;2.47;;;;;;;5.09;94.23;102780.31;5027907;28;20526;-89
2021/12/20 05:02:26;;;;;;;29.00;2.50;;;;;;;5.11;94.50;102782.94;5029487;28;20364;-90
2021/12/20 05:04:51;;;;;;;28.27;3.67;;;;;;;5.09;92.53;102785.47;5030321;28;20021;-89
2021/12/20 05:07:17;;;;;;;27.83;3.20;;;;;;;5.11;93.87;102783.81;5028570;28;20400;-89
2021/12/20 05:09:42;;;;;;;27.77;3.63;;;;;;;5.10;93.68;102782.06;5030408;28;20087;-89
2021/12/20 05:12:14;;;;;;;19.60;2.85;;;;;;;5.09;93.40;102779.44;5029208;28;20396;-89
2021/12/20 05:14:42;;;;;;;21.27;2.20;;;;;;;5.13;94.45;102786.41;5010492;28;20036;-89
2021/12/20 05:17:12;;;;;;;21.17;2.30;;;;;;;5.12;93.67;102788.09;5009564;28;20033;-89
2021/12/20 05:19:38;;;;;;;19.38;2.75;;;;;;;5.16;95.83;102791.66;5010406;28;20089;-89
2021/12/20 05:22:05;;;;;;;24.13;3.00;;;;;;;5.13;95.78;102792.44;5018768;28;20066;-89
2021/12/20 05:24:30;;;;;;;24.00;3.25;;;;;;;5.11;92.27;102790.66;5025012;28;20038;-89
2021/12/20 05:26:55;;;;;;;23.35;2.45;;;;;;;5.10;92.11;102787.22;5023873;28;20130;-89
2021/12/20 05:29:22;;;;;;;26.25;2.50;;;;;;;5.10;93.15;102788.91;5010565;28;20030;-89
2021/12/20 05:31:47;;;;;;;24.20;3.15;;;;;;;5.10;90.89;102796.63;5010229;28;20018;-88
2021/12/20 05:34:13;;;;;;;21.40;2.42;;;;;;;5.06;92.73;102793.06;5010385;28;20044;-89
2021/12/20 05:36:38;;;;;;;21.52;2.42;;;;;;;5.07;90.03;102806.78;5029269;28;20026;-89
2021/12/20 05:39:04;;;;;;;26.35;2.60;;;;;;;5.07;92.22;102792.25;5016702;28;20073;-89
2021/12/20 05:41:29;;;;;;;18.40;2.13;;;;;;;5.06;89.91;102798.22;5017543;28;20083;-89
2021/12/20 05:43:54;;;;;;;23.77;2.78;;;;;;;5.00;87.33;102792.88;5014225;28;20025;-89
2021/12/20 05:46:20;;;;;;;18.42;2.72;;;;;;;5.03;88.51;102793.00;5013222;28;20102;-89
2021/12/20 05:48:45;;;;;;;23.92;2.65;;;;;;;5.02;89.86;102793.81;5033646;28;20111;-89
2021/12/20 05:51:11;;;;;;;23.38;2.75;;;;;;;5.03;88.23;102804.97;5014938;28;20037;-89
2021/12/20 05:53:36;;;;;;;23.75;2.40;;;;;;;4.92;87.00;102780.63;5010733;28;20037;-88
2021/12/20 05:56:02;;;;;;;23.35;3.15;;;;;;;4.98;86.50;102799.66;5019916;28;20030;-89
2021/12/20 05:58:27;;;;;;;30.42;2.97;;;;;;;4.96;89.10;102798.78;5016155;28;20029;-89
2021/12/20 06:00:52;;;;;;;21.83;2.55;;;;;;;4.98;86.66;102806.53;5023436;28;20045;-89
2021/12/20 06:03:18;;;;;;;21.80;2.78;;;;;;;4.97;86.76;102805.66;5033140;28;20079;-88
2021/12/20 06:05:43;;;;;;;23.42;3.60;;;;;;;4.94;86.84;102789.25;5032617;28;20376;-89
2021/12/20 06:08:09;;;;;;;25.58;2.90;;;;;;;4.95;86.37;102793.59;5017327;28;20030;-89
2021/12/20 06:10:36;;;;;;;22.90;2.58;;;;;;;4.93;87.56;102796.09;4999748;28;20030;-89
2021/12/20 06:13:03;;;;;;;18.48;2.38;;;;;;;4.93;88.42;102798.66;5013734;28;20018;-89
2021/12/20 06:15:28;;;;;;;14.55;2.38;;;;;;;4.91;89.20;102797.78;5005587;28;20021;-89
2021/12/20 06:17:54;;;;;;;19.30;2.60;;;;;;;4.92;85.53;102801.19;5019121;28;20048;-89
2021/12/20 06:20:19;;;;;;;20.85;2.67;;;;;;;4.90;84.22;102805.41;5013981;28;20467;-89
2021/12/20 06:22:45;;;;;;;22.15;2.10;;;;;;;4.92;85.64;102802.06;5013550;28;20048;-89
2021/12/20 06:25:12;;;;;;;18.17;2.30;;;;;;;4.92;83.08;102804.63;5013540;28;20100;-89
2021/12/20 06:27:38;;;;;;;22.52;2.67;;;;;;;4.92;81.53;102801.19;5025941;28;20057;-89
2021/12/20 06:30:04;;;;;;;20.98;1.95;;;;;;;4.96;79.98;102813.31;5029357;28;20030;-89
2021/12/20 06:32:30;;;;;;;13.93;1.40;;;;;;;4.99;75.76;102809.13;5032613;28;20022;-89
2021/12/20 06:34:55;;;;;;;18.35;1.90;;;;;;;5.03;76.89;102804.97;5015532;28;20064;-89
2021/12/20 06:37:21;;;;;;;15.15;2.05;;;;;;;5.04;78.27;102804.16;5015486;28;20048;-89
2021/12/20 06:39:47;;;;;;;16.33;1.65;;;;;;;5.04;78.12;102809.28;5026549;28;20073;-89
2021/12/20 06:42:12;;;;;;;13.73;1.90;;;;;;;5.03;78.53;102807.53;5014820;28;20032;-89
2021/12/20 06:44:37;;;;;;;13.88;1.70;;;;;;;5.00;79.92;102808.31;5011301;28;20030;-89
2021/12/20 06:47:03;;;;;;;14.48;2.67;;;;;;;5.01;77.31;102815.19;5012302;28;20469;-89
2021/12/20 06:49:28;;;;;;;17.48;2.22;;;;;;;5.01;76.93;102828.03;5013198;28;20164;-89
2021/12/20 06:51:58;;;;;;;14.60;1.85;;;;;;;5.00;76.91;102825.41;5002587;28;20051;-89
2021/12/20 06:54:24;;;;;;;13.15;1.83;;;;;;;4.95;81.09;102815.00;5001531;28;20087;-89
2021/12/20 06:56:49;;;;;;;13.07;1.90;;;;;;;4.99;84.32;102831.38;5012981;28;20037;-89
2021/12/20 06:59:14;;;;;;;22.65;1.70;;;;;;;4.95;82.54;102832.13;5012216;28;20109;-89
2021/12/20 07:01:41;;;;;;;17.52;2.55;;;;;;;4.91;84.63;102817.44;4998035;28;20041;-89
2021/12/20 07:04:07;;;;;;;21.10;2.05;;;;;;;4.90;81.30;102829.41;5013149;28;20437;-89
2021/12/20 07:06:32;;;;;;;12.90;1.90;;;;;;;4.92;85.76;102838.03;5016579;28;20488;-89
2021/12/20 07:08:58;;;;;;;17.10;2.10;;;;;;;4.91;84.58;102830.28;5018395;28;20038;-89
2021/12/20 07:11:24;;;;;;;15.20;2.10;;;;;;;4.91;86.84;102835.44;5011075;28;20021;-89
2021/12/20 07:13:53;;;;;;;21.77;2.22;;;;;;;4.90;87.85;102834.56;5021303;28;20033;-89
2021/12/20 07:16:18;;;;;;;21.13;2.20;;;;;;;4.91;86.80;102830.28;5002581;28;20037;-89
2021/12/20 07:18:43;;;;;;;15.98;2.20;;;;;;;4.90;88.79;102824.28;5012322;28;20022;-89
2021/12/20 07:21:08;;;;;;;21.83;2.63;;;;;;;4.93;87.74;102833.75;5015695;28;20025;-89
2021/12/20 07:23:34;;;;;;;13.00;2.42;;;;;;;4.93;89.16;102841.47;4996489;28;20114;-89
2021/12/20 07:26:01;;;;;;;19.02;2.13;;;;;;;4.91;88.77;102843.16;5013170;28;20026;-89
2021/12/20 07:28:27;;;;;;;18.85;2.60;;;;;;;4.91;89.34;102838.00;5018235;28;20026;-89
2021/12/20 07:30:52;;;;;;;20.80;2.92;;;;;;;4.89;87.20;102837.06;5017119;28;20029;-89
2021/12/20 07:33:17;;;;;;;19.70;2.17;;;;;;;4.91;89.77;102843.16;5014183;28;20045;-89
2021/12/20 07:35:44;;;;;;;22.38;2.67;;;;;;;4.91;90.03;102840.56;5012094;28;20051;-89
2021/12/20 07:38:14;;;;;;;22.08;2.95;;;;;;;4.88;89.53;102835.31;5024896;28;20296;-89
2021/12/20 07:40:57;;;;;;;12.23;2.30;;;;;;;4.90;88.29;102838.81;5013685;28;20369;-89
2021/12/20 07:43:23;;;;;;;16.15;2.33;;;;;;;4.90;89.01;102837.13;5017248;28;20484;-88
2021/12/20 07:45:49;;;;;;;18.13;2.00;;;;;;;4.91;90.30;102832.88;5016206;28;20480;-88
2021/12/20 07:48:16;;;;;;;19.38;2.03;;;;;;;4.89;83.51;102837.06;5011419;28;20575;-88
2021/12/20 07:50:43;;;;;;;13.10;1.98;;;;;;;4.89;79.89;102834.50;5013634;28;20365;-88
2021/12/20 07:53:08;;;;;;;12.77;2.42;;;;;;;4.87;76.57;102831.88;5022017;28;20096;-89
2021/12/20 07:55:34;;;;;;;7.93;1.30;;;;;;;4.95;78.23;102847.53;5015463;28;20026;-89
2021/12/20 07:57:59;;;;;;;14.38;2.20;;;;;;;4.98;82.13;102845.09;5008866;28;20094;-89
2021/12/20 08:00:25;;;;;;;14.10;2.83;;;;;;;4.99;83.56;102839.09;5011353;28;20046;-89
2021/12/20 08:02:51;;;;;;;12.35;1.90;;;;;;;4.97;84.26;102831.34;5017408;28;20396;-89
2021/12/20 08:05:19;;;;;;;24.10;2.13;;;;;;;5.00;85.44;102843.41;5028980;28;20037;-89
2021/12/20 08:07:45;;;;;;;23.88;2.80;;;;;;;4.99;84.28;102846.81;5012745;28;20025;-89
2021/12/20 08:10:11;;;;;;;23.50;2.58;;;;;;;5.02;85.40;102850.34;5031005;28;20368;-89
2021/12/20 08:12:36;;;;;;;16.63;2.28;;;;;;;5.04;86.43;102843.56;5022226;28;20040;-89
2021/12/20 08:15:03;;;;;;;20.67;3.00;;;;;;;5.05;87.58;102840.16;5012248;28;20033;-88
2021/12/20 08:17:28;;;;;;;20.15;2.53;;;;;;;5.06;86.71;102841.91;5023805;28;20381;-88
2021/12/20 08:19:54;;;;;;;23.15;2.95;;;;;;;5.09;86.71;102849.72;5014307;28;20533;-88
2021/12/20 08:22:24;;;;;;;21.75;3.13;;;;;;;5.11;86.49;102857.50;5018834;28;20373;-88
2021/12/20 08:24:49;;;;;;;21.15;2.63;;;;;;;5.13;87.63;102855.81;5007347;28;20025;-88
2021/12/20 08:27:14;;;;;;;19.13;2.83;;;;;;;5.15;86.98;102860.19;5007103;28;20156;-88
2021/12/20 08:29:40;;;;;;;18.52;2.95;;;;;;;5.16;86.54;102856.78;5022092;28;20472;-88
2021/12/20 08:32:05;;;;;;;20.83;2.95;;;;;;;5.18;86.18;102851.72;5017239;28;20125;-88
2021/12/20 08:34:31;;;;;;;16.30;2.65;;;;;;;5.23;86.25;102857.84;5028084;28;20021;-88
2021/12/20 08:36:57;;;;;;;17.35;2.70;;;;;;;5.23;85.41;102860.44;5024647;28;20504;-89
2021/12/20 08:39:22;;;;;;;18.85;2.63;;;;;;;5.25;87.19;102863.94;5019319;28;20075;-84
2021/12/20 08:41:48;;;;;;;16.65;2.45;;;;;;;5.29;86.72;102859.72;5011764;28;20030;-84
2021/12/20 08:44:14;;;;;;;21.23;3.25;;;;;;;5.31;86.80;102864.09;5010740;28;20118;-82
2021/12/20 08:46:39;;;;;;;19.42;3.17;;;;;;;5.33;88.00;102861.56;5011176;28;20021;-82
2021/12/20 08:49:05;;;;;;;21.98;2.92;;;;;;;5.36;87.08;102862.53;5025589;28;20033;-82
2021/12/20 08:51:30;;;;;;;16.40;3.45;;;;;;;5.39;85.67;102864.34;5023410;28;20610;-82
2021/12/20 08:53:56;;;;;;;16.58;3.10;;;;;;;5.43;86.63;102859.31;5017419;28;20061;-82
2021/12/20 08:56:21;;;;;;;21.33;3.30;;;;;;;5.46;85.53;102863.66;5010917;28;20075;-82
2021/12/20 08:58:47;;;;;;;24.48;3.20;;;;;;;5.44;84.40;102866.22;5013458;28;20030;-82
2021/12/20 09:01:13;;;;;;;21.52;3.50;;;;;;;5.47;83.63;102862.84;5006924;28;20501;-82
2021/12/20 09:03:39;;;;;;;24.23;2.95;;;;;;;5.49;84.27;102869.78;5012124;28;20042;-82
2021/12/20 09:06:05;;;;;;;23.48;3.35;;;;;;;5.49;84.73;102867.22;5010548;28;20447;-83
2021/12/20 09:08:31;;;;;;;18.15;3.45;;;;;;;5.52;84.20;102869.03;5023856;28;20025;-83
2021/12/20 09:10:57;;;;;;;21.08;3.20;;;;;;;5.56;86.72;102871.72;5029943;28;20059;-83
2021/12/20 09:13:22;;;;;;;19.67;3.70;;;;;;;5.59;85.33;102868.38;5029569;28;20029;-83
2021/12/20 09:15:48;;;;;;;23.48;2.97;;;;;;;5.63;85.48;102874.47;5020558;28;20064;-83
2021/12/20 09:18:13;;;;;;;16.45;2.70;;;;;;;5.65;85.46;102867.69;5009655;28;20042;-83
2021/12/20 09:20:39;;;;;;;28.58;3.10;;;;;;;5.68;84.35;102871.19;5010418;28;20046;-82
2021/12/20 09:23:06;;;;;;;23.80;3.28;;;;;;;5.69;85.29;102867.78;5021629;28;20102;-82
2021/12/20 09:25:34;;;;;;;19.50;3.00;;;;;;;5.76;86.10;102876.56;5010511;28;20029;-82
2021/12/20 09:28:08;;;;;;;20.63;3.03;;;;;;;5.79;84.86;102881.81;4998616;28;20109;-82
2021/12/20 09:30:33;;;;;;;24.70;2.92;;;;;;;5.78;83.18;102878.38;5029174;28;20017;-82
2021/12/20 09:32:59;;;;;;;16.42;3.15;;;;;;;5.79;84.35;102882.69;5029557;28;20411;-82
2021/12/20 09:35:25;;;;;;;17.35;3.13;;;;;;;5.80;82.86;102886.97;5013218;28;20102;-82
2021/12/20 09:37:51;;;;;;;17.80;3.90;;;;;;;5.80;82.84;102888.72;5009731;28;20116;-82
2021/12/20 09:40:30;;;;;;;19.50;3.55;;;;;;;5.78;83.18;102883.50;5010009;28;20112;-82
2021/12/20 09:42:55;;;;;;;20.08;3.15;;;;;;;5.79;82.81;102890.41;4999522;28;20033;-82
2021/12/20 09:45:23;;;;;;;19.65;3.30;;;;;;;5.82;83.33;102884.44;5016916;28;20029;-82
2021/12/20 09:47:50;;;;;;;19.23;3.47;;;;;;;5.86;84.21;102900.03;5009779;28;20018;-82
2021/12/20 09:50:16;;;;;;;23.33;3.28;;;;;;;5.89;84.47;102900.16;5000397;28;20030;-82
2021/12/20 09:52:42;;;;;;;21.85;3.58;;;;;;;5.88;82.80;102898.41;5010232;28;20441;-82
2021/12/20 09:55:09;;;;;;;25.67;3.58;;;;;;;5.86;81.95;102897.47;4992353;28;20487;-82
2021/12/20 09:57:36;;;;;;;24.00;3.10;;;;;;;5.88;82.92;102897.53;5022273;28;20112;-82
2021/12/20 10:00:04;;;;;;;20.70;3.97;;;;;;;5.90;83.90;102898.44;5021770;28;20056;-82
2021/12/20 10:02:30;;;;;;;20.05;3.25;;;;;;;5.93;82.86;102896.84;5019712;28;20061;-82
2021/12/20 10:04:55;;;;;;;18.48;3.33;;;;;;;6.01;83.03;102896.16;5017341;28;20068;-82
2021/12/20 10:07:24;;;;;;;20.92;2.90;;;;;;;6.05;82.41;102898.88;5010156;28;20022;-82
2021/12/20 10:09:50;;;;;;;15.02;3.00;;;;;;;6.08;81.90;102900.66;4998559;28;20018;-82
2021/12/20 10:12:19;;;;;;;17.45;3.28;;;;;;;6.10;82.19;102899.00;5029379;28;20108;-82
2021/12/20 10:14:50;;;;;;;20.20;3.10;;;;;;;6.15;82.29;102900.00;5028541;28;20031;-82
2021/12/20 10:17:15;;;;;;;19.88;3.78;;;;;;;6.18;81.92;102900.09;5015003;28;20056;-81
2021/12/20 10:19:40;;;;;;;12.15;2.70;;;;;;;6.19;82.09;102894.13;5011199;28;20065;-82
2021/12/20 10:22:35;;;;;;;15.35;3.05;;;;;;;6.27;83.39;102905.50;5010953;28;20034;-82
2021/12/20 10:25:02;;;;;;;15.23;2.92;;;;;;;6.26;85.06;102896.91;5010580;28;20045;-82
2021/12/20 10:27:29;;;;;;;23.90;2.80;;;;;;;6.25;81.31;102896.84;5013168;28;20440;-82
2021/12/20 10:29:55;;;;;;;15.57;2.80;;;;;;;6.22;80.68;102899.34;5012571;28;20040;-82
2021/12/20 10:32:42;;;;;;;21.38;3.45;;;;;;;6.18;81.92;102889.78;5012844;28;20034;-82
2021/12/20 10:35:26;;;;;;;21.58;3.00;;;;;;;6.18;82.09;102898.41;4995356;28;20026;-82
2021/12/20 10:38:07;;;;;;;23.10;3.47;;;;;;;6.15;80.92;102888.00;5016225;28;20041;-82
2021/12/20 10:40:34;;;;;;;13.15;2.80;;;;;;;6.19;82.02;102895.00;5032588;28;20025;-82
2021/12/20 10:43:04;;;;;;;18.83;3.38;;;;;;;6.16;80.59;102892.31;5031104;28;20040;-82
2021/12/20 10:45:30;;;;;;;18.58;3.15;;;;;;;6.25;82.56;102897.72;5031896;28;20599;-82
2021/12/20 10:48:08;;;;;;;17.70;2.95;;;;;;;6.32;82.84;102893.63;4995177;28;20117;-82
2021/12/20 10:50:42;;;;;;;18.88;3.45;;;;;;;6.37;81.60;102906.59;5029888;28;20025;-82
2021/12/20 10:53:13;;;;;;;14.35;2.70;;;;;;;6.42;81.91;102905.00;5016166;28;20104;-82
2021/12/20 10:55:42;;;;;;;20.27;4.15;;;;;;;6.41;80.67;102903.31;5008414;28;20117;-82
2021/12/20 10:58:23;;;;;;;20.48;3.30;;;;;;;6.36;82.15;102895.44;5026036;28;20037;-82
2021/12/20 11:01:46;;;;;;;20.98;3.92;;;;;;;6.26;82.53;102894.34;5031595;28;20052;-82
2021/12/20 11:04:13;;;;;;;13.75;2.70;;;;;;;6.03;80.88;102892.81;5012027;28;20044;-82
2021/12/20 11:09:22;;;;;;;13.60;2.75;;;;;;;5.64;81.45;102896.78;5025600;28;20030;-82
2021/12/20 11:11:52;;;;;;;20.05;2.95;;;;;;;5.54;82.21;102896.50;5012519;28;20550;-82
2021/12/20 11:14:21;;;;;;;18.83;2.83;;;;;;;5.43;82.84;102886.75;5012684;28;20030;-82
2021/12/20 11:16:51;;;;;;;15.02;2.63;;;;;;;5.39;82.24;102888.31;5030570;28;20033;-82
2021/12/20 11:19:23;;;;;;;17.70;3.67;;;;;;;5.37;82.67;102891.69;5012421;28;20041;-82
2021/12/20 11:21:58;;;;;;;19.77;3.50;;;;;;;5.32;82.63;102891.53;5021319;28;20030;-82
2021/12/20 11:24:25;;;;;;;;;;;;;;;5.35;84.33;102883.06;5002446;28;20021;-82
2021/12/20 11:26:51;;;;;;;18.00;3.45;;;;;;;5.31;83.64;102879.53;5017559;28;19913;-82
2021/12/20 11:29:17;;;;;;;18.05;3.90;;;;;;;5.31;84.32;102879.53;5011698;28;20048;-82
2021/12/20 11:31:44;;;;;;;20.05;3.60;;;;;;;5.30;84.19;102885.50;5012159;28;20430;-82
2021/12/20 11:34:09;;;;;;;17.92;4.35;;;;;;;5.31;83.13;102879.53;5000349;28;20021;-82
2021/12/20 11:36:35;;;;;;;17.02;3.65;;;;;;;5.32;83.02;102877.84;5013646;28;20130;-82